Strona główna
METAR-TAF:

METAR-TAF

Lotnisko :

Lotnisko Chopina w Warszawie

Warszawa, Polska

Szerokość geograficzna: 52-10N, Długość geograficzna: 020-58E, wysokość: 106 m

Aktualna obserwacja pogody

Raport powstał 16 minut temu, godzina 19:30 UTC
Wiatr 6 kt od wschodnio-północny wschód
Temperatura 24°C
Wilgotność 50%
Ciśnienie 1018 hPa
Widzialność 10 km lub więcej
Brak chmur poniżej 1500 m i brak chmur cumulonimbus

METAR: EPWA 181930Z 06006KT CAVOK 24/13 Q1018 NOSIG

czas: 21:46 (19:46 UTC)

Prognoza

Raport powstał 2 godziny i 16 minut temu, godzina 17:30 UTC
Prognoza ważna od 18 godzina 18 UTC do 19 godzina 18 UTC
Wiatr 5 kt od wschód
Widzialność 10 km lub więcej
Brak chmur poniżej 1500 m i brak chmur cumulonimbus
Przejściowo
od 19 godzina 12 UTC do 19 godzina 18 UTC
Widzialność: 3000 m
Rozproszone chmury na wysokości 1200 ft
Przerywane chmury na wysokości 3000 ft, Cumulonimbus.
burza, deszcz

TAF: EPWA 181730Z 1818/1918 09005KT CAVOK TEMPO 1912/1918 3000 TSRA SCT012 BKN030CB

Obserwacja i prognoza pogody dla ponad 4000 lotnisk (raport METAR i TAF).

Dostępne stacje oznaczono żółtymi i czerwonymi punktami na mapie.

Najedź kursorem aby zobaczyć nazwę stacji.

Kliknij aby zobaczyć obserwacje i prognozy pogody.

Aby zmienić mapę: kliknij na zielony przycisk z czarnym krzyżykiem, aby powiększyć; na zielony przycisk z myślnikiem, aby pomniejszyć; na zielone strzałki, aby przejść do map sąsiednich.


METAR-TAF: